sensor_id;sensor_type;location;lat;lon;timestamp;pressure;altitude;pressure_sealevel;temperature;humidity
72110;BME280;59983;52.010;5.420;2023-10-31T00:01:57;99593.31;;;10.11;100.00
72110;BME280;59983;52.010;5.420;2023-10-31T00:04:24;99595.63;;;10.09;100.00
72110;BME280;59983;52.010;5.420;2023-10-31T00:06:51;99598.69;;;10.08;100.00
72110;BME280;59983;52.010;5.420;2023-10-31T00:09:17;99607.22;;;10.10;100.00
72110;BME280;59983;52.010;5.420;2023-10-31T00:11:44;99591.69;;;10.07;100.00
72110;BME280;59983;52.010;5.420;2023-10-31T00:14:11;99590.53;;;10.04;100.00
72110;BME280;59983;52.010;5.420;2023-10-31T00:16:56;99591.66;;;10.03;100.00
72110;BME280;59983;52.010;5.420;2023-10-31T00:19:23;99592.81;;;10.02;100.00
72110;BME280;59983;52.010;5.420;2023-10-31T00:21:49;99592.81;;;10.02;100.00
72110;BME280;59983;52.010;5.420;2023-10-31T00:24:16;99605.59;;;10.02;100.00
72110;BME280;59983;52.010;5.420;2023-10-31T00:26:43;99597.41;;;9.98;100.00
72110;BME280;59983;52.010;5.420;2023-10-31T00:29:09;99592.81;;;9.99;100.00
72110;BME280;59983;52.010;5.420;2023-10-31T00:31:36;99592.81;;;10.02;100.00
72110;BME280;59983;52.010;5.420;2023-10-31T00:34:02;99596.28;;;9.99;100.00
72110;BME280;59983;52.010;5.420;2023-10-31T00:36:29;99604.03;;;10.01;100.00
72110;BME280;59983;52.010;5.420;2023-10-31T00:38:55;99598.63;;;10.01;100.00
72110;BME280;59983;52.010;5.420;2023-10-31T00:41:22;99603.66;;;10.02;100.00
72110;BME280;59983;52.010;5.420;2023-10-31T00:43:48;99610.22;;;10.01;100.00
72110;BME280;59983;52.010;5.420;2023-10-31T00:46:15;99613.66;;;9.98;100.00
72110;BME280;59983;52.010;5.420;2023-10-31T00:48:41;99618.34;;;10.01;100.00
72110;BME280;59983;52.010;5.420;2023-10-31T00:51:08;99631.91;;;10.01;100.00
72110;BME280;59983;52.010;5.420;2023-10-31T00:53:34;99632.28;;;10.00;100.00
72110;BME280;59983;52.010;5.420;2023-10-31T00:56:01;99643.91;;;10.00;100.00
72110;BME280;59983;52.010;5.420;2023-10-31T00:58:30;99639.66;;;10.03;100.00
72110;BME280;59983;52.010;5.420;2023-10-31T01:00:57;99635.03;;;10.03;100.00
72110;BME280;59983;52.010;5.420;2023-10-31T01:03:24;99637.72;;;10.03;100.00
72110;BME280;59983;52.010;5.420;2023-10-31T01:05:50;99642.38;;;10.03;100.00
72110;BME280;59983;52.010;5.420;2023-10-31T01:08:17;99643.91;;;10.00;100.00
72110;BME280;59983;52.010;5.420;2023-10-31T01:10:43;99655.50;;;10.01;100.00
72110;BME280;59983;52.010;5.420;2023-10-31T01:13:10;99657.44;;;10.00;100.00
72110;BME280;59983;52.010;5.420;2023-10-31T01:15:36;99656.22;;;9.98;100.00
72110;BME280;59983;52.010;5.420;2023-10-31T01:18:03;99658.94;;;9.98;100.00
72110;BME280;59983;52.010;5.420;2023-10-31T01:20:30;99664.72;;;9.96;100.00
72110;BME280;59983;52.010;5.420;2023-10-31T01:22:56;99668.22;;;9.97;100.00
72110;BME280;59983;52.010;5.420;2023-10-31T01:25:23;99659.31;;;9.96;100.00
72110;BME280;59983;52.010;5.420;2023-10-31T01:27:49;99656.59;;;9.96;100.00
72110;BME280;59983;52.010;5.420;2023-10-31T01:30:16;99661.66;;;9.98;100.00
72110;BME280;59983;52.010;5.420;2023-10-31T01:32:43;99667.06;;;9.98;100.00
72110;BME280;59983;52.010;5.420;2023-10-31T01:35:09;99674.06;;;9.99;100.00
72110;BME280;59983;52.010;5.420;2023-10-31T01:37:36;99668.66;;;9.99;100.00
72110;BME280;59983;52.010;5.420;2023-10-31T01:40:03;99666.72;;;9.99;100.00
72110;BME280;59983;52.010;5.420;2023-10-31T01:42:30;99671.34;;;9.99;100.00
72110;BME280;59983;52.010;5.420;2023-10-31T01:44:57;99668.66;;;9.99;100.00
72110;BME280;59983;52.010;5.420;2023-10-31T01:47:23;99669.78;;;9.98;100.00
72110;BME280;59983;52.010;5.420;2023-10-31T01:49:52;99665.13;;;9.98;100.00
72110;BME280;59983;52.010;5.420;2023-10-31T01:52:18;99666.72;;;9.99;100.00
72110;BME280;59983;52.010;5.420;2023-10-31T01:54:45;99665.13;;;9.98;100.00
72110;BME280;59983;52.010;5.420;2023-10-31T01:57:12;99676.78;;;9.99;100.00
72110;BME280;59983;52.010;5.420;2023-10-31T01:59:40;99665.13;;;9.98;100.00
72110;BME280;59983;52.010;5.420;2023-10-31T02:02:06;99674.84;;;9.99;100.00
72110;BME280;59983;52.010;5.420;2023-10-31T02:04:34;99672.91;;;10.00;100.00
72110;BME280;59983;52.010;5.420;2023-10-31T02:07:01;99680.66;;;10.01;100.00
72110;BME280;59983;52.010;5.420;2023-10-31T02:09:28;99680.25;;;9.99;100.00
72110;BME280;59983;52.010;5.420;2023-10-31T02:11:56;99676.03;;;10.02;100.00
72110;BME280;59983;52.010;5.420;2023-10-31T02:14:23;99683.78;;;10.03;100.00
72110;BME280;59983;52.010;5.420;2023-10-31T02:16:50;99679.50;;;10.02;100.00
72110;BME280;59983;52.010;5.420;2023-10-31T02:19:20;99678.00;;;10.05;100.00
72110;BME280;59983;52.010;5.420;2023-10-31T02:21:47;99672.16;;;10.03;100.00
72110;BME280;59983;52.010;5.420;2023-10-31T02:24:13;99682.22;;;10.02;100.00
72110;BME280;59983;52.010;5.420;2023-10-31T02:26:40;99673.69;;;10.00;100.00
72110;BME280;59983;52.010;5.420;2023-10-31T02:29:06;99674.09;;;10.02;100.00
72110;BME280;59983;52.010;5.420;2023-10-31T02:31:33;99678.38;;;10.03;100.00
72110;BME280;59983;52.010;5.420;2023-10-31T02:34:00;99674.50;;;10.04;100.00
72110;BME280;59983;52.010;5.420;2023-10-31T02:36:26;99670.22;;;10.03;100.00
72110;BME280;59983;52.010;5.420;2023-10-31T02:38:53;99677.22;;;10.04;100.00
72110;BME280;59983;52.010;5.420;2023-10-31T02:41:19;99686.53;;;10.07;100.00
72110;BME280;59983;52.010;5.420;2023-10-31T02:43:47;99683.03;;;10.06;100.00
72110;BME280;59983;52.010;5.420;2023-10-31T02:46:13;99690.38;;;10.06;100.00
72110;BME280;59983;52.010;5.420;2023-10-31T02:48:41;99681.84;;;10.04;100.00
72110;BME280;59983;52.010;5.420;2023-10-31T02:51:08;99689.59;;;10.05;100.00
72110;BME280;59983;52.010;5.420;2023-10-31T02:53:35;99698.19;;;10.11;100.00
72110;BME280;59983;52.010;5.420;2023-10-31T02:56:03;99688.13;;;10.11;100.00
72110;BME280;59983;52.010;5.420;2023-10-31T02:58:29;99699.75;;;10.12;100.00
72110;BME280;59983;52.010;5.420;2023-10-31T03:00:56;99700.53;;;10.12;100.00
72110;BME280;59983;52.010;5.420;2023-10-31T03:03:23;99708.66;;;10.12;100.00
72110;BME280;59983;52.010;5.420;2023-10-31T03:05:49;99707.88;;;10.12;100.00
72110;BME280;59983;52.010;5.420;2023-10-31T03:08:16;99716.78;;;10.12;100.00
72110;BME280;59983;52.010;5.420;2023-10-31T03:10:48;99707.09;;;10.11;100.00
72110;BME280;59983;52.010;5.420;2023-10-31T03:13:17;99715.59;;;10.10;100.00
72110;BME280;59983;52.010;5.420;2023-10-31T03:15:45;99720.25;;;10.09;100.00
72110;BME280;59983;52.010;5.420;2023-10-31T03:18:12;99726.06;;;10.11;100.00
72110;BME280;59983;52.010;5.420;2023-10-31T03:20:43;99734.97;;;10.12;100.00
72110;BME280;59983;52.010;5.420;2023-10-31T03:23:12;99722.56;;;10.11;100.00
72110;BME280;59983;52.010;5.420;2023-10-31T03:25:40;99734.97;;;10.12;100.00
72110;BME280;59983;52.010;5.420;2023-10-31T03:28:19;99736.91;;;10.11;100.00
72110;BME280;59983;52.010;5.420;2023-10-31T03:30:49;99743.88;;;10.12;100.00
72110;BME280;59983;52.010;5.420;2023-10-31T03:33:16;99751.22;;;10.12;100.00
72110;BME280;59983;52.010;5.420;2023-10-31T03:35:43;99752.75;;;10.09;100.00
72110;BME280;59983;52.010;5.420;2023-10-31T03:38:11;99758.97;;;10.10;100.00
72110;BME280;59983;52.010;5.420;2023-10-31T03:40:37;99758.97;;;10.10;100.00
72110;BME280;59983;52.010;5.420;2023-10-31T03:43:05;99772.50;;;10.10;100.00
72110;BME280;59983;52.010;5.420;2023-10-31T03:45:31;99768.59;;;10.07;100.00
72110;BME280;59983;52.010;5.420;2023-10-31T03:47:58;99776.72;;;10.07;100.00
72110;BME280;59983;52.010;5.420;2023-10-31T03:50:24;99772.44;;;10.06;100.00
72110;BME280;59983;52.010;5.420;2023-10-31T03:52:51;99782.50;;;10.06;100.00
72110;BME280;59983;52.010;5.420;2023-10-31T03:55:18;99788.69;;;10.06;100.00
72110;BME280;59983;52.010;5.420;2023-10-31T03:57:44;99790.28;;;10.07;100.00
72110;BME280;59983;52.010;5.420;2023-10-31T04:00:11;99788.69;;;10.06;100.00
72110;BME280;59983;52.010;5.420;2023-10-31T04:02:39;99798.03;;;10.09;100.00
72110;BME280;59983;52.010;5.420;2023-10-31T04:05:06;99806.94;;;10.09;100.00
72110;BME280;59983;52.010;5.420;2023-10-31T04:07:33;99802.31;;;10.10;100.00
72110;BME280;59983;52.010;5.420;2023-10-31T04:10:00;99810.81;;;10.08;100.00
72110;BME280;59983;52.010;5.420;2023-10-31T04:12:26;99813.91;;;10.10;100.00
72110;BME280;59983;52.010;5.420;2023-10-31T04:14:53;99818.56;;;10.10;100.00
72110;BME280;59983;52.010;5.420;2023-10-31T04:17:19;99810.06;;;10.11;100.00
72110;BME280;59983;52.010;5.420;2023-10-31T04:19:46;99817.81;;;10.13;100.00
72110;BME280;59983;52.010;5.420;2023-10-31T04:22:12;99819.75;;;10.12;100.00
72110;BME280;59983;52.010;5.420;2023-10-31T04:24:39;99819.38;;;10.14;100.00
72110;BME280;59983;52.010;5.420;2023-10-31T04:27:05;99822.47;;;10.12;100.00
72110;BME280;59983;52.010;5.420;2023-10-31T04:29:33;99824.03;;;10.13;100.00
72110;BME280;59983;52.010;5.420;2023-10-31T04:32:00;99830.22;;;10.14;100.00
72110;BME280;59983;52.010;5.420;2023-10-31T04:34:26;99834.50;;;10.15;100.00
72110;BME280;59983;52.010;5.420;2023-10-31T04:36:53;99825.56;;;10.14;100.00
72110;BME280;59983;52.010;5.420;2023-10-31T04:39:20;99832.94;;;10.14;100.00
72110;BME280;59983;52.010;5.420;2023-10-31T04:41:46;99821.69;;;10.12;100.00
72110;BME280;59983;52.010;5.420;2023-10-31T04:44:13;99817.81;;;10.13;100.00
72110;BME280;59983;52.010;5.420;2023-10-31T04:46:40;99823.59;;;10.11;100.00
72110;BME280;59983;52.010;5.420;2023-10-31T04:49:06;99827.09;;;10.12;100.00
72110;BME280;59983;52.010;5.420;2023-10-31T04:51:34;99823.97;;;10.10;100.00
72110;BME280;59983;52.010;5.420;2023-10-31T04:54:01;99833.66;;;10.11;100.00
72110;BME280;59983;52.010;5.420;2023-10-31T04:56:27;99829.00;;;10.08;100.00
72110;BME280;59983;52.010;5.420;2023-10-31T04:58:54;99832.47;;;10.08;100.00
72110;BME280;59983;52.010;5.420;2023-10-31T05:01:20;99836.34;;;10.07;100.00
72110;BME280;59983;52.010;5.420;2023-10-31T05:03:47;99834.34;;;10.04;100.00
72110;BME280;59983;52.010;5.420;2023-10-31T05:06:24;99835.50;;;10.03;100.00
72110;BME280;59983;52.010;5.420;2023-10-31T05:08:50;99846.69;;;10.02;100.00
72110;BME280;59983;52.010;5.420;2023-10-31T05:11:17;99859.06;;;9.99;100.00
72110;BME280;59983;52.010;5.420;2023-10-31T05:13:45;99858.63;;;9.97;100.00
72110;BME280;59983;52.010;5.420;2023-10-31T05:16:12;99870.59;;;9.96;100.00
72110;BME280;59983;52.010;5.420;2023-10-31T05:18:39;99866.34;;;9.95;100.00
72110;BME280;59983;52.010;5.420;2023-10-31T05:21:05;99872.06;;;9.90;100.00
72110;BME280;59983;52.010;5.420;2023-10-31T05:23:32;99866.59;;;9.86;100.00
72110;BME280;59983;52.010;5.420;2023-10-31T05:25:58;99877.78;;;9.85;100.00
72110;BME280;59983;52.010;5.420;2023-10-31T05:28:25;99880.09;;;9.83;100.00
72110;BME280;59983;52.010;5.420;2023-10-31T05:30:51;99880.78;;;9.80;100.00
72110;BME280;59983;52.010;5.420;2023-10-31T05:33:18;99885.78;;;9.78;100.00
72110;BME280;59983;52.010;5.420;2023-10-31T05:35:45;99890.81;;;9.76;100.00
72110;BME280;59983;52.010;5.420;2023-10-31T05:38:11;99879.19;;;9.75;100.00
72110;BME280;59983;52.010;5.420;2023-10-31T05:40:38;99889.25;;;9.75;100.00
72110;BME280;59983;52.010;5.420;2023-10-31T05:43:04;99896.94;;;9.73;100.00
72110;BME280;59983;52.010;5.420;2023-10-31T05:45:31;99900.00;;;9.71;100.00
72110;BME280;59983;52.010;5.420;2023-10-31T05:47:57;99901.50;;;9.69;100.00
72110;BME280;59983;52.010;5.420;2023-10-31T05:50:24;99903.38;;;9.64;100.00
72110;BME280;59983;52.010;5.420;2023-10-31T05:52:51;99903.75;;;9.63;100.00
72110;BME280;59983;52.010;5.420;2023-10-31T05:55:17;99906.03;;;9.61;100.00
72110;BME280;59983;52.010;5.420;2023-10-31T05:57:44;99918.00;;;9.60;100.00
72110;BME280;59983;52.010;5.420;2023-10-31T06:00:11;99915.28;;;9.60;100.00
72110;BME280;59983;52.010;5.420;2023-10-31T06:02:37;99917.22;;;9.59;100.00
72110;BME280;59983;52.010;5.420;2023-10-31T06:05:05;99916.44;;;9.59;100.00
72110;BME280;59983;52.010;5.420;2023-10-31T06:07:31;99917.56;;;9.58;100.00
72110;BME280;59983;52.010;5.420;2023-10-31T06:09:58;99921.44;;;9.57;100.00
72110;BME280;59983;52.010;5.420;2023-10-31T06:12:24;99921.84;;;9.59;100.00
72110;BME280;59983;52.010;5.420;2023-10-31T06:14:51;99926.06;;;9.56;100.00
72110;BME280;59983;52.010;5.420;2023-10-31T06:17:17;99927.53;;;9.54;100.00
72110;BME280;59983;52.010;5.420;2023-10-31T06:19:44;99929.84;;;9.52;100.00
72110;BME280;59983;52.010;5.420;2023-10-31T06:22:12;99935.97;;;9.49;100.00
72110;BME280;59983;52.010;5.420;2023-10-31T06:24:38;99944.88;;;9.49;100.00
72110;BME280;59983;52.010;5.420;2023-10-31T06:27:06;99946.03;;;9.48;100.00
72110;BME280;59983;52.010;5.420;2023-10-31T06:29:33;99944.88;;;9.49;100.00
72110;BME280;59983;52.010;5.420;2023-10-31T06:32:03;99947.19;;;9.47;100.00
72110;BME280;59983;52.010;5.420;2023-10-31T06:34:30;99945.66;;;9.50;100.00
72110;BME280;59983;52.010;5.420;2023-10-31T06:36:57;99950.66;;;9.48;100.00
72110;BME280;59983;52.010;5.420;2023-10-31T06:39:23;99949.50;;;9.49;100.00
72110;BME280;59983;52.010;5.420;2023-10-31T06:41:54;99951.06;;;9.50;100.00
72110;BME280;59983;52.010;5.420;2023-10-31T06:44:21;99947.53;;;9.46;100.00
72110;BME280;59983;52.010;5.420;2023-10-31T06:46:47;99958.38;;;9.46;100.00
72110;BME280;59983;52.010;5.420;2023-10-31T06:49:14;99958.28;;;9.42;100.00
72110;BME280;59983;52.010;5.420;2023-10-31T06:51:40;99965.56;;;9.38;100.00
72110;BME280;59983;52.010;5.420;2023-10-31T06:54:07;99967.50;;;9.38;100.00
72110;BME280;59983;52.010;5.420;2023-10-31T06:56:33;99969.06;;;9.39;100.00
72110;BME280;59983;52.010;5.420;2023-10-31T06:59:00;99967.81;;;9.36;100.00
72110;BME280;59983;52.010;5.420;2023-10-31T07:01:27;99971.34;;;9.36;100.00
72110;BME280;59983;52.010;5.420;2023-10-31T07:03:54;99977.53;;;9.37;100.00
72110;BME280;59983;52.010;5.420;2023-10-31T07:06:20;99982.16;;;9.36;100.00
72110;BME280;59983;52.010;5.420;2023-10-31T07:08:47;99980.66;;;9.39;100.00
72110;BME280;59983;52.010;5.420;2023-10-31T07:11:14;99983.00;;;9.41;100.00
72110;BME280;59983;52.010;5.420;2023-10-31T07:13:40;99986.50;;;9.41;100.00
72110;BME280;59983;52.010;5.420;2023-10-31T07:16:07;99990.75;;;9.42;100.00
72110;BME280;59983;52.010;5.420;2023-10-31T07:18:34;99991.19;;;9.44;100.00
72110;BME280;59983;52.010;5.420;2023-10-31T07:21:00;99990.47;;;9.47;100.00
72110;BME280;59983;52.010;5.420;2023-10-31T07:23:27;99996.69;;;9.48;100.00
72110;BME280;59983;52.010;5.420;2023-10-31T07:25:53;99994.44;;;9.53;100.00
72110;BME280;59983;52.010;5.420;2023-10-31T07:28:20;99991.03;;;9.56;100.00
72110;BME280;59983;52.010;5.420;2023-10-31T07:30:46;100009.34;;;9.63;100.00
72110;BME280;59983;52.010;5.420;2023-10-31T07:33:13;100010.56;;;9.65;100.00
72110;BME280;59983;52.010;5.420;2023-10-31T07:35:40;100019.91;;;9.72;100.00
72110;BME280;59983;52.010;5.420;2023-10-31T07:38:06;100011.09;;;9.75;100.00
72110;BME280;59983;52.010;5.420;2023-10-31T07:40:34;100013.16;;;9.81;100.00
72110;BME280;59983;52.010;5.420;2023-10-31T07:43:00;100008.94;;;9.84;100.00
72110;BME280;59983;52.010;5.420;2023-10-31T07:45:27;100027.13;;;9.83;100.00
72110;BME280;59983;52.010;5.420;2023-10-31T07:47:54;100021.72;;;9.83;100.00
72110;BME280;59983;52.010;5.420;2023-10-31T07:50:20;100022.50;;;9.84;100.00
72110;BME280;59983;52.010;5.420;2023-10-31T07:52:47;100020.59;;;9.88;100.00
72110;BME280;59983;52.010;5.420;2023-10-31T07:55:14;100025.31;;;9.91;100.00
72110;BME280;59983;52.010;5.420;2023-10-31T07:57:41;100033.13;;;9.96;100.00
72110;BME280;59983;52.010;5.420;2023-10-31T08:00:10;100028.59;;;10.00;100.00
72110;BME280;59983;52.010;5.420;2023-10-31T08:02:37;100025.94;;;10.04;100.00
72110;BME280;59983;52.010;5.420;2023-10-31T08:05:04;100029.53;;;10.11;100.00
72110;BME280;59983;52.010;5.420;2023-10-31T08:07:31;100037.38;;;10.16;100.00
72110;BME280;59983;52.010;5.420;2023-10-31T08:09:57;100025.44;;;10.21;100.00
72110;BME280;59983;52.010;5.420;2023-10-31T08:12:24;100027.53;;;10.28;100.00
72110;BME280;59983;52.010;5.420;2023-10-31T08:14:50;100024.06;;;10.31;100.00
72110;BME280;59983;52.010;5.420;2023-10-31T08:17:17;100030.66;;;10.30;100.00
72110;BME280;59983;52.010;5.420;2023-10-31T08:19:43;100031.03;;;10.28;100.00
72110;BME280;59983;52.010;5.420;2023-10-31T08:22:10;100033.34;;;10.30;100.00
72110;BME280;59983;52.010;5.420;2023-10-31T08:24:36;100031.81;;;10.29;100.00
72110;BME280;59983;52.010;5.420;2023-10-31T08:27:04;100034.50;;;10.29;100.00
72110;BME280;59983;52.010;5.420;2023-10-31T08:29:31;100027.94;;;10.30;100.00
72110;BME280;59983;52.010;5.420;2023-10-31T08:31:57;100040.75;;;10.33;100.00
72110;BME280;59983;52.010;5.420;2023-10-31T08:34:24;100029.66;;;10.41;100.00
72110;BME280;59983;52.010;5.420;2023-10-31T08:36:51;100035.63;;;10.50;100.00
72110;BME280;59983;52.010;5.420;2023-10-31T08:39:19;100031.16;;;10.62;100.00
72110;BME280;59983;52.010;5.420;2023-10-31T08:41:53;100054.09;;;10.68;100.00
72110;BME280;59983;52.010;5.420;2023-10-31T08:44:20;100044.09;;;10.72;100.00
72110;BME280;59983;52.010;5.420;2023-10-31T08:46:46;100049.63;;;10.79;100.00
72110;BME280;59983;52.010;5.420;2023-10-31T08:49:14;100053.16;;;10.83;100.00
72110;BME280;59983;52.010;5.420;2023-10-31T08:51:42;100055.50;;;10.85;100.00
72110;BME280;59983;52.010;5.420;2023-10-31T08:54:09;100055.47;;;10.81;100.00
72110;BME280;59983;52.010;5.420;2023-10-31T08:56:36;100070.97;;;10.81;100.00
72110;BME280;59983;52.010;5.420;2023-10-31T08:59:02;100068.66;;;10.83;100.00
72110;BME280;59983;52.010;5.420;2023-10-31T09:01:30;100075.34;;;10.89;100.00
72110;BME280;59983;52.010;5.420;2023-10-31T09:03:56;100075.03;;;10.94;100.00
72110;BME280;59983;52.010;5.420;2023-10-31T09:06:25;100078.22;;;10.99;100.00
72110;BME280;59983;52.010;5.420;2023-10-31T09:08:51;100086.06;;;11.04;100.00
72110;BME280;59983;52.010;5.420;2023-10-31T09:11:18;100093.44;;;11.07;100.00
72110;BME280;59983;52.010;5.420;2023-10-31T09:13:45;100097.47;;;11.17;100.00
72110;BME280;59983;52.010;5.420;2023-10-31T09:16:11;100097.59;;;11.28;100.00
72110;BME280;59983;52.010;5.420;2023-10-31T09:18:40;100103.09;;;11.31;100.00
72110;BME280;59983;52.010;5.420;2023-10-31T09:21:08;100101.16;;;11.32;100.00
72110;BME280;59983;52.010;5.420;2023-10-31T09:23:34;100103.16;;;11.39;100.00
72110;BME280;59983;52.010;5.420;2023-10-31T09:26:01;100104.00;;;11.43;100.00
72110;BME280;59983;52.010;5.420;2023-10-31T09:28:28;100104.78;;;11.43;100.00
72110;BME280;59983;52.010;5.420;2023-10-31T09:30:55;100106.34;;;11.44;100.00
72110;BME280;59983;52.010;5.420;2023-10-31T09:33:22;100109.47;;;11.46;100.00
72110;BME280;59983;52.010;5.420;2023-10-31T09:35:48;100106.81;;;11.50;100.00
72110;BME280;59983;52.010;5.420;2023-10-31T09:38:15;100111.91;;;11.55;100.00
72110;BME280;59983;52.010;5.420;2023-10-31T09:40:42;100120.13;;;11.58;100.00
72110;BME280;59983;52.010;5.420;2023-10-31T09:43:08;100126.00;;;11.64;100.00
72110;BME280;59983;52.010;5.420;2023-10-31T09:45:35;100125.22;;;11.63;100.00
72110;BME280;59983;52.010;5.420;2023-10-31T09:48:01;100133.84;;;11.69;100.00
72110;BME280;59983;52.010;5.420;2023-10-31T09:50:29;100133.47;;;11.74;100.00
72110;BME280;59983;52.010;5.420;2023-10-31T09:52:56;100133.59;;;11.81;100.00
72110;BME280;59983;52.010;5.420;2023-10-31T09:55:24;100132.53;;;11.89;100.00
72110;BME280;59983;52.010;5.420;2023-10-31T09:57:51;100137.97;;;11.89;100.00
72110;BME280;59983;52.010;5.420;2023-10-31T10:00:18;100143.53;;;12.00;100.00
72110;BME280;59983;52.010;5.420;2023-10-31T10:02:44;100149.09;;;12.11;100.00
72110;BME280;59983;52.010;5.420;2023-10-31T10:05:14;100144.78;;;12.10;100.00
72110;BME280;59983;52.010;5.420;2023-10-31T10:07:42;100140.97;;;12.14;100.00
72110;BME280;59983;52.010;5.420;2023-10-31T10:10:11;100158.53;;;12.21;100.00
72110;BME280;59983;52.010;5.420;2023-10-31T10:12:41;100156.63;;;12.25;100.00
72110;BME280;59983;52.010;5.420;2023-10-31T10:15:10;100165.22;;;12.30;100.00
72110;BME280;59983;52.010;5.420;2023-10-31T10:17:37;100164.47;;;12.33;100.00
72110;BME280;59983;52.010;5.420;2023-10-31T10:20:08;100171.41;;;12.27;100.00
72110;BME280;59983;52.010;5.420;2023-10-31T10:22:42;100165.06;;;12.16;100.00
72110;BME280;59983;52.010;5.420;2023-10-31T10:25:10;100167.41;;;12.17;100.00
72110;BME280;59983;52.010;5.420;2023-10-31T10:27:38;100170.50;;;12.16;100.00
72110;BME280;59983;52.010;5.420;2023-10-31T10:30:05;100171.66;;;12.15;100.00
72110;BME280;59983;52.010;5.420;2023-10-31T10:32:32;100179.06;;;12.18;100.00
72110;BME280;59983;52.010;5.420;2023-10-31T10:34:58;100184.16;;;12.19;100.00
72110;BME280;59983;52.010;5.420;2023-10-31T10:37:26;100179.50;;;12.20;100.00
72110;BME280;59983;52.010;5.420;2023-10-31T10:39:53;100187.38;;;12.29;100.00
72110;BME280;59983;52.010;5.420;2023-10-31T10:42:32;100185.94;;;12.42;100.00
72110;BME280;59983;52.010;5.420;2023-10-31T10:45:02;100186.03;;;12.53;100.00
72110;BME280;59983;52.010;5.420;2023-10-31T10:47:34;100191.94;;;12.62;100.00
72110;BME280;59983;52.010;5.420;2023-10-31T10:50:01;100188.13;;;12.66;100.00
72110;BME280;59983;52.010;5.420;2023-10-31T10:52:38;100202.88;;;12.65;100.00
72110;BME280;59983;52.010;5.420;2023-10-31T10:55:12;100197.28;;;12.51;100.00
72110;BME280;59983;52.010;5.420;2023-10-31T10:58:01;100188.66;;;12.42;100.00
72110;BME280;59983;52.010;5.420;2023-10-31T11:00:30;100196.06;;;12.45;100.00
72110;BME280;59983;52.010;5.420;2023-10-31T11:02:57;100194.28;;;12.60;100.00
72110;BME280;59983;52.010;5.420;2023-10-31T11:05:24;100199.75;;;12.63;100.00
72110;BME280;59983;52.010;5.420;2023-10-31T11:07:51;100199.34;;;12.61;100.00
72110;BME280;59983;52.010;5.420;2023-10-31T11:10:18;100199.75;;;12.63;100.00
72110;BME280;59983;52.010;5.420;2023-10-31T11:12:45;100196.59;;;12.58;100.00
72110;BME280;59983;52.010;5.420;2023-10-31T11:15:15;100205.84;;;12.53;100.00
72110;BME280;59983;52.010;5.420;2023-10-31T11:17:46;100203.59;;;12.59;100.00
72110;BME280;59983;52.010;5.420;2023-10-31T11:20:15;100213.41;;;12.70;100.00
72110;BME280;59983;52.010;5.420;2023-10-31T11:22:44;100215.72;;;12.65;100.00
72110;BME280;59983;52.010;5.420;2023-10-31T11:25:18;100202.41;;;12.56;100.00
72110;BME280;59983;52.010;5.420;2023-10-31T11:28:16;100212.44;;;12.52;100.00
72110;BME280;59983;52.010;5.420;2023-10-31T11:30:47;100212.84;;;12.51;100.00
72110;BME280;59983;52.010;5.420;2023-10-31T11:33:16;100220.66;;;12.56;100.00
72110;BME280;59983;52.010;5.420;2023-10-31T11:35:50;100225.25;;;12.48;100.00
72110;BME280;59983;52.010;5.420;2023-10-31T11:38:30;100216.31;;;12.47;100.00
72110;BME280;59983;52.010;5.420;2023-10-31T11:41:00;100231.13;;;12.54;100.00
72110;BME280;59983;52.010;5.420;2023-10-31T11:43:50;100231.84;;;12.47;100.00
72110;BME280;59983;52.010;5.420;2023-10-31T11:46:24;100235.34;;;12.47;100.00
72110;BME280;59983;52.010;5.420;2023-10-31T11:48:53;100239.16;;;12.39;100.00
72110;BME280;59983;52.010;5.420;2023-10-31T11:51:22;100238.28;;;12.32;100.00
72110;BME280;59983;52.010;5.420;2023-10-31T11:53:49;100231.97;;;12.24;100.00
72110;BME280;59983;52.010;5.420;2023-10-31T11:56:16;100234.28;;;12.22;100.00
72110;BME280;59983;52.010;5.420;2023-10-31T11:58:43;100237.78;;;12.23;100.00
72110;BME280;59983;52.010;5.420;2023-10-31T12:01:10;100244.38;;;12.22;100.00
72110;BME280;59983;52.010;5.420;2023-10-31T12:03:43;100236.59;;;12.20;100.00
72110;BME280;59983;52.010;5.420;2023-10-31T12:06:17;100235.00;;;12.19;100.00
72110;BME280;59983;52.010;5.420;2023-10-31T12:08:44;100246.22;;;12.14;100.00
72110;BME280;59983;52.010;5.420;2023-10-31T12:16:27;100253.88;;;12.05;100.00
72110;BME280;59983;52.010;5.420;2023-10-31T12:19:02;100255.84;;;12.08;100.00
72110;BME280;59983;52.010;5.420;2023-10-31T12:24:04;100254.91;;;12.27;100.00
72110;BME280;59983;52.010;5.420;2023-10-31T12:26:33;100263.25;;;12.41;100.00
72110;BME280;59983;52.010;5.420;2023-10-31T12:29:19;100250.16;;;12.54;100.00
72110;BME280;59983;52.010;5.420;2023-10-31T12:31:51;100257.22;;;12.58;100.00
72110;BME280;59983;52.010;5.420;2023-10-31T12:34:24;100272.22;;;12.45;100.00
72110;BME280;59983;52.010;5.420;2023-10-31T12:36:53;100257.31;;;12.32;100.00
72110;BME280;59983;52.010;5.420;2023-10-31T12:39:30;100261.28;;;12.38;100.00
72110;BME280;59983;52.010;5.420;2023-10-31T12:41:57;100258.63;;;12.45;100.00
72110;BME280;59983;52.010;5.420;2023-10-31T12:44:25;100266.53;;;12.57;100.00
72110;BME280;59983;52.010;5.420;2023-10-31T12:46:54;100267.78;;;12.63;100.00
72110;BME280;59983;52.010;5.420;2023-10-31T12:49:21;100278.97;;;12.55;100.00
72110;BME280;59983;52.010;5.420;2023-10-31T12:52:02;100284.19;;;12.37;100.00
72110;BME280;59983;52.010;5.420;2023-10-31T12:54:31;100271.22;;;12.27;100.00
72110;BME280;59983;52.010;5.420;2023-10-31T12:57:00;100262.66;;;12.25;100.00
72110;BME280;59983;52.010;5.420;2023-10-31T12:59:27;100269.66;;;12.26;100.00